createdAt,value
2018-10-19T00:00:31.411Z,1007.8
2018-10-19T00:01:30.047Z,1007.83
2018-10-19T00:02:28.567Z,1007.8
2018-10-19T00:03:30.733Z,1007.8
2018-10-19T00:04:31.391Z,1007.83
2018-10-19T00:05:37.740Z,1007.81
2018-10-19T00:06:35.376Z,1007.73
2018-10-19T00:07:34.900Z,1007.74
2018-10-19T00:08:39.483Z,1007.78
2018-10-19T00:09:40.851Z,1007.74
2018-10-19T00:10:38.803Z,1007.72
2018-10-19T00:11:41.179Z,1007.78
2018-10-19T00:12:41.525Z,1007.78
2018-10-19T00:13:41.612Z,1007.78
2018-10-19T00:14:39.186Z,1007.84
2018-10-19T00:15:37.939Z,1007.75
2018-10-19T00:16:36.692Z,1007.7
2018-10-19T00:17:34.745Z,1007.7
2018-10-19T00:18:34.137Z,1007.74
2018-10-19T00:19:33.547Z,1007.75
2018-10-19T00:20:39.032Z,1007.77
2018-10-19T00:21:38.502Z,1007.8
2018-10-19T00:22:39.296Z,1007.77
2018-10-19T00:23:39.154Z,1007.71
2018-10-19T00:24:37.170Z,1007.86
2018-10-19T00:25:36.099Z,1007.81
2018-10-19T00:26:37.446Z,1007.81
2018-10-19T00:27:41.034Z,1007.8
2018-10-19T00:28:42.940Z,1007.81
2018-10-19T00:29:43.558Z,1007.8
2018-10-19T00:30:43.784Z,1007.87
2018-10-19T00:31:48.646Z,1007.77
2018-10-19T00:32:48.227Z,1007.75
2018-10-19T00:33:45.835Z,1007.86
2018-10-19T00:34:45.266Z,1007.75
2018-10-19T00:35:50.808Z,1007.84
2018-10-19T00:36:49.049Z,1007.9
2018-10-19T00:37:52.673Z,1007.84
2018-10-19T00:38:55.103Z,1007.89
2018-10-19T00:39:53.537Z,1007.9
2018-10-19T00:40:52.017Z,1007.81
2018-10-19T00:41:52.878Z,1007.78
2018-10-19T00:42:53.100Z,1007.74
2018-10-19T00:43:56.552Z,1007.71
2018-10-19T00:44:59.119Z,1007.75
2018-10-19T00:45:58.851Z,1007.8
2018-10-19T00:46:57.262Z,1007.72
2018-10-19T00:47:56.168Z,1007.81
2018-10-19T00:48:58.611Z,1007.69
2018-10-19T00:49:58.332Z,1007.74
2018-10-19T00:50:55.990Z,1007.77
2018-10-19T00:51:55.550Z,1007.71
2018-10-19T00:52:54.125Z,1007.71
2018-10-19T00:53:51.794Z,1007.72
2018-10-19T00:54:56.848Z,1007.71
2018-10-19T00:55:55.681Z,1007.68
2018-10-19T00:56:53.322Z,1007.74
2018-10-19T00:57:55.420Z,1007.72
2018-10-19T00:58:53.439Z,1007.71
2018-10-19T00:59:51.124Z,1007.69
2018-10-19T01:00:48.931Z,1007.63
2018-10-19T01:01:56.136Z,1007.68
2018-10-19T01:02:53.873Z,1007.68
2018-10-19T01:03:56.091Z,1007.63
2018-10-19T01:04:55.491Z,1007.62
2018-10-19T01:06:01.677Z,1007.74
2018-10-19T01:07:08.988Z,1007.71
2018-10-19T01:08:06.814Z,1007.65
2018-10-19T01:09:22.669Z,1007.69
2018-10-19T01:10:22.294Z,1007.65
2018-10-19T01:11:26.591Z,1007.72
2018-10-19T01:12:24.579Z,1007.68
2018-10-19T01:13:23.617Z,1007.63
2018-10-19T01:14:31.338Z,1007.63
2018-10-19T01:15:41.999Z,1007.69
2018-10-19T01:16:41.678Z,1007.59
2018-10-19T01:17:42.395Z,1007.68
2018-10-19T01:18:47.928Z,1007.62
2018-10-19T01:19:48.937Z,1007.6
2018-10-19T01:20:48.965Z,1007.56
2018-10-19T01:21:51.189Z,1007.6
2018-10-19T01:22:49.617Z,1007.63
2018-10-19T01:23:53.707Z,1007.54
2018-10-19T01:24:51.172Z,1007.59
2018-10-19T01:25:55.163Z,1007.53
2018-10-19T01:26:53.288Z,1007.6
2018-10-19T01:27:51.021Z,1007.62
2018-10-19T01:28:50.886Z,1007.53
2018-10-19T01:29:54.339Z,1007.56
2018-10-19T01:30:57.010Z,1007.62
2018-10-19T01:31:55.972Z,1007.56
2018-10-19T01:32:53.561Z,1007.54
2018-10-19T01:33:51.973Z,1007.54
2018-10-19T01:34:49.594Z,1007.54
2018-10-19T01:35:47.099Z,1007.48
2018-10-19T01:36:47.314Z,1007.54
2018-10-19T01:37:47.716Z,1007.5
2018-10-19T01:38:48.758Z,1007.51
2018-10-19T01:39:51.402Z,1007.44
2018-10-19T01:40:51.363Z,1007.5
2018-10-19T01:41:55.115Z,1007.48
2018-10-19T01:42:53.875Z,1007.47
2018-10-19T01:43:58.511Z,1007.51
2018-10-19T01:44:56.607Z,1007.47
2018-10-19T01:45:54.777Z,1007.47
2018-10-19T01:46:54.620Z,1007.53
2018-10-19T01:47:54.491Z,1007.56
2018-10-19T01:48:59.278Z,1007.54
2018-10-19T01:50:01.073Z,1007.48
2018-10-19T01:50:59.198Z,1007.51
2018-10-19T01:51:57.657Z,1007.54
2018-10-19T01:53:00.531Z,1007.53
2018-10-19T01:53:58.926Z,1007.54
2018-10-19T01:55:02.521Z,1007.51
2018-10-19T01:56:00.537Z,1007.53
2018-10-19T01:57:02.422Z,1007.53
2018-10-19T01:58:00.481Z,1007.45
2018-10-19T01:59:01.859Z,1007.63
2018-10-19T02:00:01.901Z,1007.6
2018-10-19T02:01:01.749Z,1007.6
2018-10-19T02:02:04.377Z,1007.48
2018-10-19T02:03:13.664Z,1007.59
2018-10-19T02:04:14.218Z,1007.62
2018-10-19T02:05:12.249Z,1007.57
2018-10-19T02:06:10.619Z,1007.67
2018-10-19T02:07:16.145Z,1007.66
2018-10-19T02:08:18.886Z,1007.6
2018-10-19T02:09:19.996Z,1007.6
2018-10-19T02:10:19.219Z,1007.63
2018-10-19T02:11:17.948Z,1007.64
2018-10-19T02:12:18.461Z,1007.56
2018-10-19T02:13:17.875Z,1007.64
2018-10-19T02:14:17.933Z,1007.66
2018-10-19T02:15:15.590Z,1007.73
2018-10-19T02:16:14.940Z,1007.63
2018-10-19T02:17:15.404Z,1007.63
2018-10-19T02:18:19.383Z,1007.67
2018-10-19T02:19:19.251Z,1007.66
2018-10-19T02:20:18.961Z,1007.63
2018-10-19T02:21:18.446Z,1007.75
2018-10-19T02:22:17.493Z,1007.75
2018-10-19T02:23:16.281Z,1007.7
2018-10-19T02:24:15.647Z,1007.67
2018-10-19T02:25:13.163Z,1007.76
2018-10-19T02:26:11.495Z,1007.63
2018-10-19T02:27:12.976Z,1007.6
2018-10-19T02:28:12.561Z,1007.66
2018-10-19T02:29:11.863Z,1007.69
2018-10-19T02:30:13.463Z,1007.66
2018-10-19T02:31:18.177Z,1007.7
2018-10-19T02:32:19.644Z,1007.54
2018-10-19T02:33:19.970Z,1007.66
2018-10-19T02:34:20.799Z,1007.6
2018-10-19T02:35:20.007Z,1007.66
2018-10-19T02:36:20.560Z,1007.6
2018-10-19T02:37:24.351Z,1007.6
2018-10-19T02:38:22.502Z,1007.58
2018-10-19T02:39:22.898Z,1007.58
2018-10-19T02:40:21.991Z,1007.61
2018-10-19T02:41:27.889Z,1007.58
2018-10-19T02:42:27.141Z,1007.55
2018-10-19T02:43:26.838Z,1007.54
2018-10-19T02:44:25.514Z,1007.63
2018-10-19T02:45:27.651Z,1007.63
2018-10-19T02:46:27.146Z,1007.6
2018-10-19T02:47:27.178Z,1007.51
2018-10-19T02:48:26.140Z,1007.61
2018-10-19T02:49:23.960Z,1007.6
2018-10-19T02:50:28.094Z,1007.58
2018-10-19T02:51:29.737Z,1007.63
2018-10-19T02:52:28.523Z,1007.58
2018-10-19T02:53:46.541Z,1007.6
2018-10-19T02:54:44.845Z,1007.6
2018-10-19T02:55:47.735Z,1007.66
2018-10-19T02:56:47.839Z,1007.55
2018-10-19T02:57:47.500Z,1007.54
2018-10-19T02:58:50.977Z,1007.57
2018-10-19T02:59:53.538Z,1007.57
2018-10-19T03:00:51.303Z,1007.54
2018-10-19T03:01:51.240Z,1007.57
2018-10-19T03:02:48.689Z,1007.58
2018-10-19T03:03:46.215Z,1007.7
2018-10-19T03:04:45.472Z,1007.57
2018-10-19T03:05:46.698Z,1007.64
2018-10-19T03:06:47.414Z,1007.64
2018-10-19T03:07:46.623Z,1007.58
2018-10-19T03:08:48.444Z,1007.61
2018-10-19T03:09:46.126Z,1007.63
2018-10-19T03:10:44.409Z,1007.57
2018-10-19T03:11:42.234Z,1007.61
2018-10-19T03:12:45.701Z,1007.57
2018-10-19T03:13:45.787Z,1007.61
2018-10-19T03:14:48.303Z,1007.61
2018-10-19T03:15:47.904Z,1007.58
2018-10-19T03:16:45.895Z,1007.61
2018-10-19T03:17:44.160Z,1007.61
2018-10-19T03:18:47.361Z,1007.63
2018-10-19T03:19:45.114Z,1007.58
2018-10-19T03:20:43.238Z,1007.57
2018-10-19T03:21:42.577Z,1007.49
2018-10-19T03:22:40.757Z,1007.52
2018-10-19T03:23:45.207Z,1007.52
2018-10-19T03:24:44.859Z,1007.43
2018-10-19T03:25:45.118Z,1007.55
2018-10-19T03:26:42.523Z,1007.54
2018-10-19T03:27:39.949Z,1007.52
2018-10-19T03:28:38.494Z,1007.52
2018-10-19T03:29:43.315Z,1007.54
2018-10-19T03:30:41.491Z,1007.55
2018-10-19T03:31:41.342Z,1007.46
2018-10-19T03:32:42.123Z,1007.48
2018-10-19T03:33:46.008Z,1007.43
2018-10-19T03:34:44.062Z,1007.48
2018-10-19T03:35:42.798Z,1007.49
2018-10-19T03:36:40.854Z,1007.49
2018-10-19T03:37:39.607Z,1007.49
2018-10-19T03:38:39.049Z,1007.57
2018-10-19T03:39:37.442Z,1007.55
2018-10-19T03:40:35.271Z,1007.48
2018-10-19T03:41:33.712Z,1007.51
2018-10-19T03:42:32.354Z,1007.54
2018-10-19T03:43:42.730Z,1007.58
2018-10-19T03:44:41.293Z,1007.45
2018-10-19T03:45:44.273Z,1007.49
2018-10-19T03:46:46.095Z,1007.52
2018-10-19T03:47:44.549Z,1007.52
2018-10-19T03:48:46.474Z,1007.51
2018-10-19T03:49:51.247Z,1007.46
2018-10-19T03:50:51.582Z,1007.58
2018-10-19T03:51:50.526Z,1007.55
2018-10-19T03:52:52.300Z,1007.51
2018-10-19T03:53:51.375Z,1007.57
2018-10-19T03:54:52.093Z,1007.52
2018-10-19T03:55:52.588Z,1007.55
2018-10-19T03:56:52.024Z,1007.52
2018-10-19T03:57:51.363Z,1007.55
2018-10-19T03:58:49.641Z,1007.6
2018-10-19T03:59:47.831Z,1007.55
2018-10-19T04:00:52.025Z,1007.57
2018-10-19T04:01:51.033Z,1007.61
2018-10-19T04:02:48.993Z,1007.58
2018-10-19T04:03:47.115Z,1007.58
2018-10-19T04:04:45.952Z,1007.67
2018-10-19T04:05:43.909Z,1007.67
2018-10-19T04:06:47.081Z,1007.61
2018-10-19T04:07:44.903Z,1007.64
2018-10-19T04:08:42.393Z,1007.64
2018-10-19T04:09:40.460Z,1007.73
2018-10-19T04:10:55.268Z,1007.67
2018-10-19T04:11:52.934Z,1007.61
2018-10-19T04:12:54.993Z,1007.74
2018-10-19T04:13:54.983Z,1007.68
2018-10-19T04:14:54.131Z,1007.73
2018-10-19T04:15:52.289Z,1007.67
2018-10-19T04:16:51.147Z,1007.64
2018-10-19T04:17:57.576Z,1007.67
2018-10-19T04:19:00.258Z,1007.73
2018-10-19T04:19:59.756Z,1007.77
2018-10-19T04:20:59.589Z,1007.73
2018-10-19T04:21:58.581Z,1007.74
2018-10-19T04:23:04.937Z,1007.79
2018-10-19T04:24:03.514Z,1007.68
2018-10-19T04:25:06.698Z,1007.76
2018-10-19T04:26:06.532Z,1007.85
2018-10-19T04:27:04.021Z,1007.73
2018-10-19T04:28:07.287Z,1007.76
2018-10-19T04:29:04.977Z,1007.76
2018-10-19T04:30:09.139Z,1007.7
2018-10-19T04:31:08.214Z,1007.82
2018-10-19T04:32:07.891Z,1007.83
2018-10-19T04:33:07.494Z,1007.68
2018-10-19T04:34:07.340Z,1007.7
2018-10-19T04:35:06.333Z,1007.71
2018-10-19T04:36:07.945Z,1007.76
2018-10-19T04:37:06.039Z,1007.79
2018-10-19T04:38:08.925Z,1007.77
2018-10-19T04:39:09.068Z,1007.7
2018-10-19T04:40:06.974Z,1007.7
2018-10-19T04:41:11.270Z,1007.65
2018-10-19T04:42:09.340Z,1007.74
2018-10-19T04:43:13.800Z,1007.7
2018-10-19T04:44:15.433Z,1007.74
2018-10-19T04:45:14.151Z,1007.77
2018-10-19T04:46:13.382Z,1007.68
2018-10-19T04:47:12.590Z,1007.65
2018-10-19T04:48:14.779Z,1007.77
2018-10-19T04:49:18.347Z,1007.7
2018-10-19T04:50:15.869Z,1007.64
2018-10-19T04:51:25.452Z,1007.55
2018-10-19T04:52:22.817Z,1007.58
2018-10-19T04:53:21.929Z,1007.67
2018-10-19T04:54:19.439Z,1007.58
2018-10-19T04:55:17.472Z,1007.7
2018-10-19T04:56:15.470Z,1007.67
2018-10-19T04:57:17.061Z,1007.65
2018-10-19T04:58:16.363Z,1007.61
2018-10-19T04:59:16.924Z,1007.73
2018-10-19T05:00:14.303Z,1007.73
2018-10-19T05:01:15.444Z,1007.67
2018-10-19T05:02:13.008Z,1007.67
2018-10-19T05:03:16.061Z,1007.7
2018-10-19T05:04:18.487Z,1007.71
2018-10-19T05:05:19.654Z,1007.73
2018-10-19T05:06:21.701Z,1007.74
2018-10-19T05:06:33.330Z,1007.71
2018-10-19T05:07:31.275Z,1007.77
2018-10-19T05:08:31.842Z,1007.76
2018-10-19T05:09:31.444Z,1007.76
2018-10-19T05:10:29.256Z,1007.8
2018-10-19T05:11:28.930Z,1007.8
2018-10-19T05:12:26.399Z,1007.7
2018-10-19T05:13:25.173Z,1007.71
2018-10-19T05:14:23.945Z,1007.71
2018-10-19T05:15:24.247Z,1007.73
2018-10-19T05:16:22.080Z,1007.74
2018-10-19T05:17:19.934Z,1007.71
2018-10-19T05:18:17.691Z,1007.74
2018-10-19T05:19:17.878Z,1007.74
2018-10-19T05:20:16.187Z,1007.71
2018-10-19T05:21:24.593Z,1007.58
2018-10-19T05:22:26.262Z,1007.87
2018-10-19T05:23:28.974Z,1007.65
2018-10-19T05:24:29.037Z,1007.67
2018-10-19T05:25:28.612Z,1007.71
2018-10-19T05:26:26.166Z,1007.64
2018-10-19T05:27:20.549Z,1007.68
2018-10-19T05:28:21.238Z,1007.77
2018-10-19T05:29:23.608Z,1007.71
2018-10-19T05:30:25.623Z,1007.74
2018-10-19T05:31:23.550Z,1007.75
2018-10-19T05:32:20.923Z,1007.75
2018-10-19T05:33:24.463Z,1007.7
2018-10-19T05:34:24.078Z,1007.74
2018-10-19T05:35:25.870Z,1007.74
2018-10-19T05:36:25.744Z,1007.61
2018-10-19T05:37:23.252Z,1007.7
2018-10-19T05:38:22.038Z,1007.7
2018-10-19T05:39:20.624Z,1007.72
2018-10-19T05:40:20.547Z,1007.78
2018-10-19T05:41:23.728Z,1007.81
2018-10-19T05:42:21.641Z,1007.86
2018-10-19T05:43:20.170Z,1007.77
2018-10-19T05:44:23.464Z,1007.8
2018-10-19T05:45:21.285Z,1007.87
2018-10-19T05:46:20.137Z,1007.81
2018-10-19T05:47:17.495Z,1007.81
2018-10-19T05:48:20.482Z,1007.89
2018-10-19T05:49:18.222Z,1007.8
2018-10-19T05:50:23.739Z,1007.83
2018-10-19T05:51:25.372Z,1007.9
2018-10-19T05:52:23.545Z,1007.86
2018-10-19T05:53:23.964Z,1007.77
2018-10-19T05:54:28.324Z,1007.92
2018-10-19T05:55:26.601Z,1007.8
2018-10-19T05:56:24.762Z,1007.83
2018-10-19T05:57:22.949Z,1007.77
2018-10-19T05:58:25.315Z,1007.83
2018-10-19T05:59:23.252Z,1007.95
2018-10-19T06:00:24.685Z,1007.84
2018-10-19T06:01:23.754Z,1007.89
2018-10-19T06:02:26.332Z,1007.86
2018-10-19T06:03:25.496Z,1007.78
2018-10-19T06:04:29.809Z,1007.84
2018-10-19T06:05:28.379Z,1007.84
2018-10-19T06:06:28.053Z,1007.84
2018-10-19T06:07:28.158Z,1007.83
2018-10-19T06:08:25.666Z,1007.89
2018-10-19T06:09:27.078Z,1007.78
2018-10-19T06:10:25.240Z,1007.84
2018-10-19T06:11:22.805Z,1007.77
2018-10-19T06:12:22.014Z,1007.87
2018-10-19T06:13:25.832Z,1007.86
2018-10-19T06:14:26.656Z,1007.81
2018-10-19T06:15:26.921Z,1007.8
2018-10-19T06:16:24.860Z,1007.84
2018-10-19T06:17:22.712Z,1007.75
2018-10-19T06:18:28.048Z,1007.89
2018-10-19T06:19:27.229Z,1007.89
2018-10-19T06:20:26.725Z,1007.87
2018-10-19T06:21:25.922Z,1007.84
2018-10-19T06:22:26.151Z,1007.87
2018-10-19T06:23:23.609Z,1007.83
2018-10-19T06:24:23.322Z,1007.86
2018-10-19T06:25:20.948Z,1007.93
2018-10-19T06:26:19.542Z,1007.93
2018-10-19T06:27:17.119Z,1007.98
2018-10-19T06:28:22.387Z,1007.95
2018-10-19T06:29:19.882Z,1007.86
2018-10-19T06:30:19.184Z,1007.96
2018-10-19T06:31:25.451Z,1007.89
2018-10-19T06:32:24.985Z,1007.93
2018-10-19T06:33:23.970Z,1007.89
2018-10-19T06:34:21.617Z,1007.96
2018-10-19T06:35:20.801Z,1007.98
2018-10-19T06:36:20.838Z,1007.96
2018-10-19T06:37:20.292Z,1007.93
2018-10-19T06:38:31.943Z,1007.98
2018-10-19T06:39:34.181Z,1007.98
2018-10-19T06:40:36.595Z,1007.98
2018-10-19T06:41:40.182Z,1008.01
2018-10-19T06:42:37.772Z,1007.93
2018-10-19T06:43:36.424Z,1008.01
2018-10-19T06:44:37.562Z,1008.01
2018-10-19T06:45:40.727Z,1007.96
2018-10-19T06:46:39.928Z,1007.94
2018-10-19T06:47:37.457Z,1007.96
2018-10-19T06:48:35.983Z,1008.02
2018-10-19T06:49:36.304Z,1007.94
2018-10-19T06:50:33.731Z,1007.97
2018-10-19T06:51:34.121Z,1007.99
2018-10-19T06:52:39.329Z,1007.97
2018-10-19T06:53:41.649Z,1008.05
2018-10-19T06:54:40.795Z,1008.01
2018-10-19T06:55:38.194Z,1008.05
2018-10-19T06:56:37.688Z,1007.99
2018-10-19T06:57:40.600Z,1008.02
2018-10-19T06:58:39.084Z,1008.11
2018-10-19T06:59:40.276Z,1007.97
2018-10-19T07:00:37.520Z,1008.05
2018-10-19T07:01:46.212Z,1008.1
2018-10-19T07:02:44.347Z,1008.08
2018-10-19T07:03:42.411Z,1008.01
2018-10-19T07:04:55.039Z,1008.14
2018-10-19T07:05:54.489Z,1007.99
2018-10-19T07:06:52.445Z,1008.05
2018-10-19T07:07:54.333Z,1008.02
2018-10-19T07:08:55.287Z,1008.02
2018-10-19T07:09:55.391Z,1008.01
2018-10-19T07:10:58.425Z,1008.02
2018-10-19T07:11:57.844Z,1008.01
2018-10-19T07:12:58.124Z,1008.07
2018-10-19T07:13:56.724Z,1008.1
2018-10-19T07:14:54.008Z,1008.11
2018-10-19T07:15:53.395Z,1008.13
2018-10-19T07:17:09.429Z,1008.08
2018-10-19T07:18:07.327Z,1008.11
2018-10-19T07:19:12.584Z,1008.04
2018-10-19T07:20:11.302Z,1008.02
2018-10-19T07:21:09.451Z,1008.05
2018-10-19T07:22:07.542Z,1008.1
2018-10-19T07:23:10.615Z,1008.11
2018-10-19T07:24:12.087Z,1007.99
2018-10-19T07:25:12.533Z,1008.07
2018-10-19T07:26:11.291Z,1008.16
2018-10-19T07:27:12.747Z,1008.13
2018-10-19T07:28:13.334Z,1008.13
2018-10-19T07:29:11.585Z,1008.11
2018-10-19T07:30:11.577Z,1008.21
2018-10-19T07:31:08.911Z,1008.16
2018-10-19T07:32:07.606Z,1008.07
2018-10-19T07:33:11.524Z,1008.11
2018-10-19T07:34:10.741Z,1008.02
2018-10-19T07:35:10.542Z,1008.1
2018-10-19T07:36:10.991Z,1008.04
2018-10-19T07:37:14.592Z,1008.17
2018-10-19T07:38:17.475Z,1008.14
2018-10-19T07:39:16.553Z,1008.2
2018-10-19T07:40:17.539Z,1008.11
2018-10-19T07:41:20.680Z,1008.04
2018-10-19T07:42:19.494Z,1008.04
2018-10-19T07:43:18.923Z,1008.11
2018-10-19T07:44:19.171Z,1008.1
2018-10-19T07:45:17.325Z,1008.16
2018-10-19T07:46:17.624Z,1008.13
2018-10-19T07:47:18.886Z,1008.1
2018-10-19T07:48:16.682Z,1008.2
2018-10-19T07:49:20.529Z,1008.16
2018-10-19T07:50:22.292Z,1008.22
2018-10-19T07:51:24.655Z,1008.28
2018-10-19T07:52:26.524Z,1008.29
2018-10-19T07:53:24.231Z,1008.17
2018-10-19T07:54:26.082Z,1008.23
2018-10-19T07:55:24.541Z,1008.19
2018-10-19T07:56:25.543Z,1008.26
2018-10-19T07:57:25.288Z,1008.23
2018-10-19T07:58:23.756Z,1008.23
2018-10-19T07:59:21.269Z,1008.26
2018-10-19T08:00:19.259Z,1008.26
2018-10-19T08:01:19.915Z,1008.29
2018-10-19T08:02:20.836Z,1008.35
2018-10-19T08:03:21.631Z,1008.32
2018-10-19T08:04:22.000Z,1008.32
2018-10-19T08:05:23.706Z,1008.29
2018-10-19T08:06:22.409Z,1008.37
2018-10-19T08:07:26.212Z,1008.29
2018-10-19T08:08:30.086Z,1008.38
2018-10-19T08:09:28.155Z,1008.32
2018-10-19T08:10:28.913Z,1008.29
2018-10-19T08:11:23.720Z,1008.32
2018-10-19T08:12:26.515Z,1008.31
2018-10-19T08:13:33.277Z,1008.32
2018-10-19T08:14:31.352Z,1008.29
2018-10-19T08:15:34.673Z,1008.37
2018-10-19T08:16:46.598Z,1008.28
2018-10-19T08:17:49.914Z,1008.34
2018-10-19T08:18:48.935Z,1008.36
2018-10-19T08:19:49.205Z,1008.31
2018-10-19T08:20:48.814Z,1008.3
2018-10-19T08:21:47.899Z,1008.36
2018-10-19T08:22:45.290Z,1008.36
2018-10-19T08:23:44.948Z,1008.44
2018-10-19T08:24:46.626Z,1008.5
2018-10-19T08:25:45.812Z,1008.47
2018-10-19T08:26:43.696Z,1008.45
2018-10-19T08:27:42.150Z,1008.48
2018-10-19T08:28:48.699Z,1008.5
2018-10-19T08:29:46.540Z,1008.47
2018-10-19T08:30:44.927Z,1008.5
2018-10-19T08:31:42.144Z,1008.51
2018-10-19T08:32:39.976Z,1008.51
2018-10-19T08:33:37.911Z,1008.46
2018-10-19T08:34:35.327Z,1008.46
2018-10-19T08:35:33.032Z,1008.54
2018-10-19T08:36:34.718Z,1008.53
2018-10-19T08:37:32.347Z,1008.49
2018-10-19T08:38:35.598Z,1008.56
2018-10-19T08:39:34.455Z,1008.53
2018-10-19T08:40:33.342Z,1008.47
2018-10-19T08:41:30.575Z,1008.51
2018-10-19T08:42:31.401Z,1008.54
2018-10-19T08:43:29.915Z,1008.54
2018-10-19T08:44:29.191Z,1008.55
2018-10-19T08:45:29.795Z,1008.61
2018-10-19T08:46:29.846Z,1008.53
2018-10-19T08:47:29.953Z,1008.62
2018-10-19T08:48:34.227Z,1008.64
2018-10-19T08:49:31.448Z,1008.65
2018-10-19T08:50:28.707Z,1008.59
2018-10-19T08:51:32.039Z,1008.68
2018-10-19T08:52:31.188Z,1008.71
2018-10-19T08:53:28.303Z,1008.72
2018-10-19T08:54:25.191Z,1008.65
2018-10-19T08:55:22.339Z,1008.72
2018-10-19T08:56:23.896Z,1008.64
2018-10-19T08:57:24.620Z,1008.59
2018-10-19T08:58:28.366Z,1008.64
2018-10-19T08:59:33.953Z,1008.65
2018-10-19T09:00:32.159Z,1008.67
2018-10-19T09:01:29.075Z,1008.68
2018-10-19T09:02:25.985Z,1008.61
2018-10-19T09:03:24.551Z,1008.71
2018-10-19T09:04:23.491Z,1008.67
2018-10-19T09:05:22.920Z,1008.71
2018-10-19T09:06:19.827Z,1008.63
2018-10-19T09:07:17.586Z,1008.58
2018-10-19T09:08:14.471Z,1008.64
2018-10-19T09:09:14.348Z,1008.64
2018-10-19T09:10:17.038Z,1008.63
2018-10-19T09:11:14.575Z,1008.64
2018-10-19T09:12:19.293Z,1008.63
2018-10-19T09:13:16.406Z,1008.58
2018-10-19T09:14:15.220Z,1008.69
2018-10-19T09:15:20.560Z,1008.63
2018-10-19T09:16:19.332Z,1008.67
2018-10-19T09:17:18.285Z,1008.63
2018-10-19T09:18:18.368Z,1008.62
2018-10-19T09:19:16.252Z,1008.72
2018-10-19T09:20:13.824Z,1008.69
2018-10-19T09:21:12.218Z,1008.6
2018-10-19T09:22:09.243Z,1008.54
2018-10-19T09:23:09.024Z,1008.65
2018-10-19T09:24:11.148Z,1008.59
2018-10-19T09:25:09.170Z,1008.66
2018-10-19T09:26:06.428Z,1008.59
2018-10-19T09:27:04.250Z,1008.63
2018-10-19T09:28:04.276Z,1008.61
2018-10-19T09:29:04.922Z,1008.65
2018-10-19T09:30:05.646Z,1008.58
2018-10-19T09:31:12.775Z,1008.56
2018-10-19T09:32:13.218Z,1008.46
2018-10-19T09:33:15.155Z,1008.58
2018-10-19T09:34:13.580Z,1008.52
2018-10-19T09:35:15.478Z,1008.52
2018-10-19T09:36:13.892Z,1008.55
2018-10-19T09:37:11.304Z,1008.48
2018-10-19T09:38:12.369Z,1008.48
2018-10-19T09:39:11.353Z,1008.48
2018-10-19T09:40:19.851Z,1008.54
2018-10-19T09:41:17.019Z,1008.49
2018-10-19T09:42:14.626Z,1008.51
2018-10-19T09:43:16.290Z,1008.48
2018-10-19T09:44:16.091Z,1008.34
2018-10-19T09:45:15.434Z,1008.44
2018-10-19T09:46:21.092Z,1008.38
2018-10-19T09:47:26.456Z,1008.37
2018-10-19T09:48:28.170Z,1008.38
2018-10-19T09:49:27.007Z,1008.44
2018-10-19T09:50:26.318Z,1008.44
2018-10-19T09:51:26.715Z,1008.43
2018-10-19T09:52:26.432Z,1008.43
2018-10-19T09:53:29.984Z,1008.49
2018-10-19T09:54:34.346Z,1008.51
2018-10-19T09:55:33.850Z,1008.45
2018-10-19T09:56:36.046Z,1008.45
2018-10-19T09:57:39.567Z,1008.48
2018-10-19T09:58:40.335Z,1008.52
2018-10-19T09:59:43.600Z,1008.43
2018-10-19T10:00:49.605Z,1008.39
2018-10-19T10:01:47.079Z,1008.45
2018-10-19T10:02:48.131Z,1008.43
2018-10-19T10:03:45.585Z,1008.45
2018-10-19T10:04:44.636Z,1008.45
2018-10-19T10:05:46.530Z,1008.44
2018-10-19T10:06:51.714Z,1008.33
2018-10-19T10:07:50.002Z,1008.27
2018-10-19T10:08:55.268Z,1008.47
2018-10-19T10:09:53.880Z,1008.44
2018-10-19T10:10:51.857Z,1008.44
2018-10-19T10:11:49.066Z,1008.43
2018-10-19T10:12:51.936Z,1008.44
2018-10-19T10:13:51.560Z,1008.51
2018-10-19T10:14:50.505Z,1008.44
2018-10-19T10:15:53.558Z,1008.36
2018-10-19T10:16:50.704Z,1008.33
2018-10-19T10:17:48.897Z,1008.43
2018-10-19T10:18:48.168Z,1008.36
2018-10-19T10:19:47.336Z,1008.37
2018-10-19T10:20:44.933Z,1008.3
2018-10-19T10:21:43.025Z,1008.32
2018-10-19T10:22:40.400Z,1008.31
2018-10-19T10:23:45.813Z,1008.25
2018-10-19T10:24:47.058Z,1008.29
2018-10-19T10:25:49.650Z,1008.25
2018-10-19T10:26:49.966Z,1008.25
2018-10-19T10:27:47.565Z,1008.23
2018-10-19T10:28:45.649Z,1008.26
2018-10-19T10:29:43.355Z,1008.3
2018-10-19T10:30:53.975Z,1008.23
2018-10-19T10:32:02.551Z,1008.2
2018-10-19T10:33:02.167Z,1008.24
2018-10-19T10:33:59.916Z,1008.22
2018-10-19T10:35:03.598Z,1008.22
2018-10-19T10:36:00.469Z,1008.25
2018-10-19T10:37:01.503Z,1008.21
2018-10-19T10:38:02.718Z,1008.23
2018-10-19T10:39:02.158Z,1008.28
2018-10-19T10:40:05.767Z,1008.15
2018-10-19T10:41:05.329Z,1008.19
2018-10-19T10:42:04.491Z,1008.22
2018-10-19T10:43:05.382Z,1008.14
2018-10-19T10:44:02.644Z,1008.17
2018-10-19T10:44:59.497Z,1008.07
2018-10-19T10:45:58.060Z,1008.16
2018-10-19T10:46:56.280Z,1008.2
2018-10-19T10:47:53.471Z,1008.17
2018-10-19T10:48:52.200Z,1008.13
2018-10-19T10:49:52.059Z,1008.13
2018-10-19T10:50:49.387Z,1008.13
2018-10-19T10:51:50.738Z,1008.11
2018-10-19T10:52:48.926Z,1008.14
2018-10-19T10:53:56.541Z,1008.15
2018-10-19T10:55:00.995Z,1008.21
2018-10-19T10:56:01.047Z,1008.09
2018-10-19T10:57:01.461Z,1008.09
2018-10-19T10:57:58.825Z,1008.08
2018-10-19T10:59:00.007Z,1008.03
2018-10-19T10:59:59.242Z,1008.03
2018-10-19T11:00:56.110Z,1007.99
2018-10-19T11:01:53.576Z,1007.94
2018-10-19T11:02:53.009Z,1007.99
2018-10-19T11:03:54.855Z,1007.99
2018-10-19T11:05:00.316Z,1007.91
2018-10-19T11:05:59.899Z,1007.97
2018-10-19T11:06:59.818Z,1007.88
2018-10-19T11:08:03.646Z,1007.88
2018-10-19T11:09:10.101Z,1007.86
2018-10-19T11:10:13.113Z,1007.86
2018-10-19T11:11:11.665Z,1007.86
2018-10-19T11:12:13.231Z,1007.82
2018-10-19T11:13:12.107Z,1007.83
2018-10-19T11:14:08.683Z,1007.76
2018-10-19T11:15:06.408Z,1007.89
2018-10-19T11:16:04.612Z,1007.86
2018-10-19T11:17:04.158Z,1007.84
2018-10-19T11:18:03.899Z,1007.77
2018-10-19T11:19:03.746Z,1007.84
2018-10-19T11:20:07.410Z,1007.87
2018-10-19T11:21:07.931Z,1007.82
2018-10-19T11:22:04.779Z,1007.83
2018-10-19T11:23:08.610Z,1007.87
2018-10-19T11:24:06.128Z,1007.76
2018-10-19T11:25:02.563Z,1007.8
2018-10-19T11:25:59.358Z,1007.83
2018-10-19T11:26:56.705Z,1007.74
2018-10-19T11:27:58.762Z,1007.82
2018-10-19T11:29:26.641Z,1007.8
2018-10-19T11:30:21.748Z,1007.77
2018-10-19T11:31:20.227Z,1007.7
2018-10-19T11:32:21.702Z,1007.8
2018-10-19T11:33:27.591Z,1007.79
2018-10-19T11:34:25.510Z,1007.65
2018-10-19T11:35:34.813Z,1007.83
2018-10-19T11:36:34.493Z,1007.71
2018-10-19T11:37:34.319Z,1007.7
2018-10-19T11:38:32.452Z,1007.8
2018-10-19T11:39:30.802Z,1007.82
2018-10-19T11:40:30.114Z,1007.79
2018-10-19T11:41:31.207Z,1007.83
2018-10-19T11:42:29.166Z,1007.82
2018-10-19T11:43:30.549Z,1007.71
2018-10-19T11:44:32.000Z,1007.76
2018-10-19T11:45:08.393Z,1007.79
2018-10-19T11:46:12.143Z,1007.77
2018-10-19T11:47:15.677Z,1007.8
2018-10-19T11:48:16.000Z,1007.77
2018-10-19T11:49:14.708Z,1007.76
2018-10-19T11:50:13.029Z,1007.8
2018-10-19T11:51:17.041Z,1007.79
2018-10-19T11:52:15.511Z,1007.82
2018-10-19T11:53:14.685Z,1007.74
2018-10-19T11:54:13.885Z,1007.76
2018-10-19T11:55:13.490Z,1007.79
2018-10-19T11:56:15.107Z,1007.83
2018-10-19T11:57:13.280Z,1007.83
2018-10-19T11:58:13.687Z,1007.78
2018-10-19T11:59:14.682Z,1007.72
2018-10-19T12:00:18.860Z,1007.78
2018-10-19T12:01:17.704Z,1007.79
2018-10-19T12:02:22.913Z,1007.78
2018-10-19T12:03:21.787Z,1007.76
2018-10-19T12:04:26.548Z,1007.76
2018-10-19T12:05:24.655Z,1007.79
2018-10-19T12:06:23.835Z,1007.81
2018-10-19T12:07:24.716Z,1007.7
2018-10-19T12:08:23.129Z,1007.71
2018-10-19T12:09:25.014Z,1007.66
2018-10-19T12:10:24.595Z,1007.77
2018-10-19T12:11:25.125Z,1007.69
2018-10-19T12:12:26.208Z,1007.71